Harrisville, RI (02830)

5:57 AM EDT on August 24, 2016 (GMT -0400)
Whipple | | Change Station

Elev 364 ft 41.97 °N, 71.66 °W | Updated 22 seconds ago

Clear
Clear
55.6 °F
Feels Like 55.6 °F
N
0.0
Wind Variable Wind from South
Gusts 0.0 mph

Today
High -- | Low -- °F
--% Chance of Precip.
Yesterday
High -- | Low -- °F
Precip. -- in
Pressure 30.30 in
Visibility 10.0 miles
Clouds Clear
Dew Point 54 °F
Humidity 96%
Rainfall 0.00 in
Snow Depth Not available.
6:04 AM 7:32 PM
Waning Gibbous, 58% visible
METAR KSFZ 240856Z AUTO VRB03KT 10SM CLR 15/14 A3025 RMK AO2 SLP260 T01500139 56007
Pressure 30.30 in
Visibility 10.0 miles
Clouds Clear
Dew Point 54 °F
Humidity 96%
Rainfall 0.00 in
Snow Depth Not available.
6:04 AM 7:32 PM
Waning Gibbous, 58% visible
METAR KSFZ 240856Z AUTO VRB03KT 10SM CLR 15/14 A3025 RMK AO2 SLP260 T01500139 56007

10-Day Weather Forecast

Almanac

Astronomy

Aug. 24, 2016 Rise Set
Actual Time
Civil Twilight
Nautical Twilight
Astronomical Twilight
Moon
Length of Visible Light
Length of Day
Tomorrow will be .
, % of the Moon is Illuminated

Today's Extremes

State Highs State Lows

Community

WunderPhotos

Upload Photos

1,934,560 photos uploaded!

WunderBlog® & News

Nearby

Air Quality

  Air Quality AQ Index Pollutant
Not available.

Snow Depth

Station Depth Elevation

Earthquake Activity

City Distance Mag. Time & Date
Minimum magnitude displayed is 2.5.

Coastal Water Temperatures

Place Temperature

Stations

Nearby Weather Stations

Station Location Temp. Windchill Dew Point Humidity Wind Precip. Elev Updated Type
                   

Watches & Warnings

There are currently no watches in effect.